Time,TemperatureF,DewpointF,PressureIn,WindDirection,WindDirectionDegrees,WindSpeedMPH,WindSpeedGustMPH,Humidity,HourlyPrecipIn,Conditions,Clouds,dailyrainin,SoftwareType,DateUTC
2013-02-15 00:08:00,-999.0,-99.9,30.27,North,-999,-999.0,-999.0,-999,0.00,,,0.00,weatherlink.com 1.10,2013-02-15 07:08:00,
2013-02-15 00:23:00,-999.0,-99.9,30.26,North,-999,-999.0,-999.0,-999,0.00,,,0.00,weatherlink.com 1.10,2013-02-15 07:23:00,
2013-02-15 00:39:00,-999.0,-99.9,30.26,North,-999,-999.0,-999.0,-999,0.00,,,0.00,weatherlink.com 1.10,2013-02-15 07:39:00,
2013-02-15 00:54:00,-999.0,-99.9,30.26,North,-999,-999.0,-999.0,-999,0.00,,,0.00,weatherlink.com 1.10,2013-02-15 07:54:00,
2013-02-15 01:09:00,-999.0,-99.9,30.26,North,-999,-999.0,-999.0,-999,0.00,,,0.00,weatherlink.com 1.10,2013-02-15 08:09:00,
2013-02-15 01:24:00,-999.0,-99.9,30.26,North,-999,-999.0,-999.0,-999,0.00,,,0.00,weatherlink.com 1.10,2013-02-15 08:24:00,
2013-02-15 01:39:00,-999.0,-99.9,30.26,North,-999,-999.0,-999.0,-999,0.00,,,0.00,weatherlink.com 1.10,2013-02-15 08:39:00,
2013-02-15 01:54:00,-999.0,-99.9,30.26,North,-999,-999.0,-999.0,-999,0.00,,,0.00,weatherlink.com 1.10,2013-02-15 08:54:00,
2013-02-15 02:09:00,-999.0,-99.9,30.26,North,-999,-999.0,-999.0,-999,0.00,,,0.00,weatherlink.com 1.10,2013-02-15 09:09:00,
2013-02-15 02:24:00,-999.0,-99.9,30.26,North,-999,-999.0,-999.0,-999,0.00,,,0.00,weatherlink.com 1.10,2013-02-15 09:24:00,
2013-02-15 02:39:00,-999.0,-99.9,30.26,North,-999,-999.0,-999.0,-999,0.00,,,0.00,weatherlink.com 1.10,2013-02-15 09:39:00,
2013-02-15 02:54:00,-999.0,-99.9,30.25,North,-999,-999.0,-999.0,-999,0.00,,,0.00,weatherlink.com 1.10,2013-02-15 09:54:00,
2013-02-15 03:09:00,-999.0,-99.9,30.25,North,-999,-999.0,-999.0,-999,0.00,,,0.00,weatherlink.com 1.10,2013-02-15 10:09:00,
2013-02-15 03:24:00,-999.0,-99.9,30.26,North,-999,-999.0,-999.0,-999,0.00,,,0.00,weatherlink.com 1.10,2013-02-15 10:24:00,
2013-02-15 03:39:00,-999.0,-99.9,30.26,North,-999,-999.0,-999.0,-999,0.00,,,0.00,weatherlink.com 1.10,2013-02-15 10:39:00,
2013-02-15 03:54:00,-999.0,-99.9,30.26,North,-999,-999.0,-999.0,-999,0.00,,,0.00,weatherlink.com 1.10,2013-02-15 10:54:00,
2013-02-15 04:10:00,-999.0,-99.9,30.27,North,-999,-999.0,-999.0,-999,0.00,,,0.00,weatherlink.com 1.10,2013-02-15 11:10:00,
2013-02-15 04:25:00,-999.0,-99.9,30.28,North,-999,-999.0,-999.0,-999,0.00,,,0.00,weatherlink.com 1.10,2013-02-15 11:25:00,
2013-02-15 04:40:00,-999.0,-99.9,30.27,North,-999,-999.0,-999.0,-999,0.00,,,0.00,weatherlink.com 1.10,2013-02-15 11:40:00,
2013-02-15 04:55:00,-999.0,-99.9,30.27,North,-999,-999.0,-999.0,-999,0.00,,,0.00,weatherlink.com 1.10,2013-02-15 11:55:00,
2013-02-15 05:10:00,-999.0,-99.9,30.28,North,-999,-999.0,-999.0,-999,0.00,,,0.00,weatherlink.com 1.10,2013-02-15 12:10:00,
2013-02-15 05:25:00,-999.0,-99.9,30.27,North,-999,-999.0,-999.0,-999,0.00,,,0.00,weatherlink.com 1.10,2013-02-15 12:25:00,
2013-02-15 05:40:00,-999.0,-99.9,30.27,North,-999,-999.0,-999.0,-999,0.00,,,0.00,weatherlink.com 1.10,2013-02-15 12:40:00,
2013-02-15 05:55:00,-999.0,-99.9,30.27,North,-999,-999.0,-999.0,-999,0.00,,,0.00,weatherlink.com 1.10,2013-02-15 12:55:00,
2013-02-15 06:10:00,-999.0,-99.9,30.27,North,-999,-999.0,-999.0,-999,0.00,,,0.00,weatherlink.com 1.10,2013-02-15 13:10:00,
2013-02-15 06:25:00,-999.0,-99.9,30.27,North,-999,-999.0,-999.0,-999,0.00,,,0.00,weatherlink.com 1.10,2013-02-15 13:25:00,
2013-02-15 06:40:00,-999.0,-99.9,30.27,North,-999,-999.0,-999.0,-999,0.00,,,0.00,weatherlink.com 1.10,2013-02-15 13:40:00,
2013-02-15 06:55:00,-999.0,-99.9,30.28,North,-999,-999.0,-999.0,-999,0.00,,,0.00,weatherlink.com 1.10,2013-02-15 13:55:00,
2013-02-15 07:10:00,-999.0,-99.9,30.28,North,-999,-999.0,-999.0,-999,0.00,,,0.00,weatherlink.com 1.10,2013-02-15 14:10:00,
2013-02-15 07:25:00,-999.0,-99.9,30.28,North,-999,-999.0,-999.0,-999,0.00,,,0.00,weatherlink.com 1.10,2013-02-15 14:25:00,
2013-02-15 07:41:00,18.1,15.0,30.29,WSW,248,1.0,1.0,89,0.00,,,0.00,weatherlink.com 1.10,2013-02-15 14:41:00,
2013-02-15 07:56:00,18.1,15.0,30.29,West,274,1.0,2.0,88,0.00,,,0.00,weatherlink.com 1.10,2013-02-15 14:56:00,
2013-02-15 08:11:00,18.5,16.0,30.30,SW,225,0.0,1.0,88,0.00,,,0.00,weatherlink.com 1.10,2013-02-15 15:11:00,
2013-02-15 08:26:00,19.6,17.0,30.32,West,260,0.0,1.0,88,0.00,,,0.00,weatherlink.com 1.10,2013-02-15 15:26:00,
2013-02-15 08:41:00,20.9,17.0,30.32,NW,326,2.0,3.0,86,0.00,,,0.00,weatherlink.com 1.10,2013-02-15 15:41:00,
2013-02-15 08:56:00,21.5,18.0,30.33,NW,304,2.0,3.0,85,0.00,,,0.00,weatherlink.com 1.10,2013-02-15 15:56:00,
2013-02-15 09:11:00,23.0,19.0,30.34,WNW,302,0.0,2.0,83,0.00,,,0.00,weatherlink.com 1.10,2013-02-15 16:11:00,
2013-02-15 09:26:00,24.4,20.0,30.35,SE,133,0.0,3.0,82,0.00,,,0.00,weatherlink.com 1.10,2013-02-15 16:26:00,
2013-02-15 09:41:00,25.7,19.0,30.35,West,278,0.0,4.0,76,0.00,,,0.00,weatherlink.com 1.10,2013-02-15 16:41:00,
2013-02-15 09:56:00,27.3,18.0,30.35,NNW,335,2.0,14.0,69,0.00,,,0.00,weatherlink.com 1.10,2013-02-15 16:56:00,
2013-02-15 10:11:00,28.1,19.0,30.35,NW,319,8.0,12.0,68,0.00,,,0.00,weatherlink.com 1.10,2013-02-15 17:11:00,
2013-02-15 10:26:00,29.2,19.0,30.34,NNW,327,9.0,12.0,67,0.00,,,0.00,weatherlink.com 1.10,2013-02-15 17:26:00,
2013-02-15 10:41:00,29.2,19.0,30.35,NW,326,8.0,18.0,66,0.00,,,0.00,weatherlink.com 1.10,2013-02-15 17:41:00,
2013-02-15 10:56:00,29.8,19.0,30.36,West,278,9.0,18.0,64,0.00,,,0.00,weatherlink.com 1.10,2013-02-15 17:56:00,
2013-02-15 11:11:00,29.6,19.0,30.36,NW,314,18.0,20.0,65,0.00,,,0.00,weatherlink.com 1.10,2013-02-15 18:11:00,
2013-02-15 11:26:00,30.1,20.0,30.35,WNW,302,6.0,20.0,66,0.00,,,0.00,weatherlink.com 1.10,2013-02-15 18:26:00,
2013-02-15 11:41:00,29.2,21.0,30.36,NE,51,7.0,22.0,72,0.00,,,0.00,weatherlink.com 1.10,2013-02-15 18:41:00,
2013-02-15 11:56:00,28.5,21.0,30.36,WNW,300,8.0,11.0,72,0.00,,,0.00,weatherlink.com 1.10,2013-02-15 18:56:00,
2013-02-15 12:11:00,29.1,20.0,30.36,NW,315,7.0,17.0,68,0.00,,,0.00,weatherlink.com 1.10,2013-02-15 19:11:00,
2013-02-15 12:26:00,29.4,19.0,30.35,NNW,332,12.0,14.0,66,0.00,,,0.00,weatherlink.com 1.10,2013-02-15 19:26:00,
2013-02-15 12:41:00,29.4,19.0,30.35,North,354,10.0,15.0,64,0.00,,,0.00,weatherlink.com 1.10,2013-02-15 19:41:00,
2013-02-15 12:56:00,29.4,19.0,30.35,NW,319,9.0,13.0,65,0.00,,,0.00,weatherlink.com 1.10,2013-02-15 19:56:00,
2013-02-15 13:11:00,30.3,19.0,30.35,NW,309,6.0,16.0,62,0.00,,,0.00,weatherlink.com 1.10,2013-02-15 20:11:00,
2013-02-15 13:26:00,29.9,18.0,30.35,NW,323,9.0,16.0,62,0.00,,,0.00,weatherlink.com 1.10,2013-02-15 20:26:00,
2013-02-15 13:41:00,29.9,18.0,30.35,West,274,4.0,15.0,61,0.00,,,0.00,weatherlink.com 1.10,2013-02-15 20:41:00,
2013-02-15 13:56:00,30.0,18.0,30.34,NW,326,8.0,15.0,60,0.00,,,0.00,weatherlink.com 1.10,2013-02-15 20:56:00,
2013-02-15 14:11:00,30.2,18.0,30.34,WNW,300,11.0,18.0,60,0.00,,,0.00,weatherlink.com 1.10,2013-02-15 21:11:00,
2013-02-15 14:26:00,31.3,18.0,30.33,WNW,297,10.0,15.0,58,0.00,,,0.00,weatherlink.com 1.10,2013-02-15 21:26:00,
2013-02-15 14:42:00,32.0,18.0,30.33,WNW,302,9.0,18.0,57,0.00,,,0.00,weatherlink.com 1.10,2013-02-15 21:42:00,
2013-02-15 14:57:00,32.6,18.0,30.33,WNW,296,8.0,16.0,56,0.00,,,0.00,weatherlink.com 1.10,2013-02-15 21:57:00,
2013-02-15 15:12:00,31.5,17.0,30.33,NW,304,9.0,19.0,56,0.00,,,0.00,weatherlink.com 1.10,2013-02-15 22:12:00,
2013-02-15 15:27:00,31.4,18.0,30.32,WNW,283,8.0,21.0,59,0.00,,,0.00,weatherlink.com 1.10,2013-02-15 22:27:00,
2013-02-15 15:42:00,32.0,18.0,30.31,NW,312,14.0,22.0,57,0.00,,,0.00,weatherlink.com 1.10,2013-02-15 22:42:00,
2013-02-15 15:57:00,32.2,18.0,30.31,WNW,295,9.0,18.0,56,0.00,,,0.00,weatherlink.com 1.10,2013-02-15 22:57:00,
2013-02-15 16:12:00,32.2,18.0,30.31,WNW,297,10.0,20.0,55,0.00,,,0.00,weatherlink.com 1.10,2013-02-15 23:12:00,
2013-02-15 16:27:00,31.8,18.0,30.31,NW,304,10.0,19.0,58,0.00,,,0.00,weatherlink.com 1.10,2013-02-15 23:27:00,
2013-02-15 16:42:00,31.5,19.0,30.30,NW,304,16.0,16.0,60,0.00,,,0.00,weatherlink.com 1.10,2013-02-15 23:42:00,
2013-02-15 16:57:00,30.2,18.0,30.30,WNW,285,7.0,14.0,62,0.00,,,0.00,weatherlink.com 1.10,2013-02-15 23:57:00,
2013-02-15 17:12:00,29.0,19.0,30.30,WNW,294,4.0,9.0,65,0.00,,,0.00,weatherlink.com 1.10,2013-02-16 00:12:00,
2013-02-15 17:27:00,28.1,18.0,30.30,WNW,283,4.0,6.0,67,0.00,,,0.00,weatherlink.com 1.10,2013-02-16 00:27:00,
2013-02-15 17:42:00,27.1,18.0,30.30,WNW,288,2.0,4.0,69,0.00,,,0.00,weatherlink.com 1.10,2013-02-16 00:42:00,
2013-02-15 17:57:00,26.2,18.0,30.30,WNW,293,3.0,4.0,71,0.00,,,0.00,weatherlink.com 1.10,2013-02-16 00:57:00,
2013-02-15 18:12:00,25.7,18.0,30.29,WNW,289,3.0,4.0,73,0.00,,,0.00,weatherlink.com 1.10,2013-02-16 01:12:00,
2013-02-15 18:42:00,25.4,18.0,30.27,WSW,253,1.0,5.0,74,0.00,,,0.00,weatherlink.com 1.10,2013-02-16 01:42:00,
2013-02-15 18:57:00,25.8,18.0,30.27,WSW,238,1.0,4.0,72,0.00,,,0.00,weatherlink.com 1.10,2013-02-16 01:57:00,
2013-02-15 19:27:00,25.5,17.0,30.27,WNW,302,1.0,4.0,71,0.00,,,0.00,weatherlink.com 1.10,2013-02-16 02:27:00,
2013-02-15 19:42:00,25.0,17.0,30.27,WSW,250,1.0,5.0,71,0.00,,,0.00,weatherlink.com 1.10,2013-02-16 02:42:00,
2013-02-15 19:57:00,23.4,16.0,30.26,SW,225,0.0,0.0,74,0.00,,,0.00,weatherlink.com 1.10,2013-02-16 02:57:00,
2013-02-15 20:12:00,22.5,16.0,30.27,SSW,193,0.0,3.0,77,0.00,,,0.00,weatherlink.com 1.10,2013-02-16 03:12:00,
2013-02-15 20:27:00,23.2,17.0,30.26,WSW,253,1.0,1.0,76,0.00,,,0.00,weatherlink.com 1.10,2013-02-16 03:27:00,
2013-02-15 20:42:00,23.5,17.0,30.27,NW,312,2.0,2.0,75,0.00,,,0.00,weatherlink.com 1.10,2013-02-16 03:42:00,
2013-02-15 20:57:00,22.9,16.0,30.27,SW,221,0.0,1.0,75,0.00,,,0.00,weatherlink.com 1.10,2013-02-16 03:57:00,
2013-02-15 21:12:00,22.0,16.0,30.26,SW,222,0.0,1.0,77,0.00,,,0.00,weatherlink.com 1.10,2013-02-16 04:12:00,
2013-02-15 21:27:00,20.9,16.0,30.25,SW,217,0.0,1.0,80,0.00,,,0.00,weatherlink.com 1.10,2013-02-16 04:27:00,
2013-02-15 21:42:00,21.0,16.0,30.25,SW,221,0.0,2.0,81,0.00,,,0.00,weatherlink.com 1.10,2013-02-16 04:42:00,
2013-02-15 21:57:00,20.9,16.0,30.25,SW,221,0.0,1.0,82,0.00,,,0.00,weatherlink.com 1.10,2013-02-16 04:57:00,
2013-02-15 22:12:00,21.2,17.0,30.24,South,190,0.0,1.0,82,0.00,,,0.00,weatherlink.com 1.10,2013-02-16 05:12:00,
2013-02-15 22:27:00,21.8,17.0,30.23,WSW,255,0.0,4.0,81,0.00,,,0.00,weatherlink.com 1.10,2013-02-16 05:27:00,
2013-02-15 22:42:00,22.0,17.0,30.23,SW,219,1.0,2.0,80,0.00,,,0.00,weatherlink.com 1.10,2013-02-16 05:42:00,
2013-02-15 22:57:00,22.0,17.0,30.22,SSW,199,0.0,2.0,80,0.00,,,0.00,weatherlink.com 1.10,2013-02-16 05:57:00,
2013-02-15 23:12:00,21.9,17.0,30.22,SSE,155,0.0,1.0,80,0.00,,,0.00,weatherlink.com 1.10,2013-02-16 06:12:00,
2013-02-15 23:27:00,21.6,17.0,30.21,SSW,197,0.0,1.0,82,0.00,,,0.00,weatherlink.com 1.10,2013-02-16 06:27:00,
2013-02-15 23:42:00,21.3,16.0,30.21,WSW,246,1.0,2.0,81,0.00,,,0.00,weatherlink.com 1.10,2013-02-16 06:42:00,
2013-02-15 23:57:00,20.8,16.0,30.21,WSW,250,0.0,2.0,81,0.00,,,0.00,weatherlink.com 1.10,2013-02-16 06:57:00,